Tiempo atmosférico en la estación meteorológica de San Bartolome Tirajana, El Matorral, Las Palmas (41 m.)



Fecha
DESCASC
Temp. máxima en grados centígrados (hora)
DESCASC
Temp. mínima en grados centígrados (hora)
DESCASC
Temp. media en grados centígrados
DESCASC
Racha de viento máxima en m/sg (hora)
DESCASC
Velocidad máxima media en intervalos de 10 minutos(hora)
DESCASC
Precipitaciones diarias en mm
DESCASC
Precipitaciones de 00:00 a 06:00 en mm
DESCASC
Precipitaciones de 06:00 a 12:00 en mm
DESCASC
Precipitaciones de 12:00 a 18:00 en mm
DESCASC
Precipitaciones de 18:00 a 24:00 en mm
DESCASC
11-08-2020 28.2 (15:50) 22.2 (03:30) 25.2 18.06 (20:00) 11.11 (15:30) 0 0 0 0 0
10-08-2020 28.3 (14:30) 22.3 (07:40) 25.3 18.61 (13:50) 11.39 (02:50) 0 0 0 0 0
09-08-2020 29.9 (14:00) 19.4 (05:20) 24.6 18.33 (23:30) 11.11 (23:20) 0 0 0 0 0
08-08-2020 28.7 (14:50) 19.7 (06:00) 24.2 17.5 (11:30) 11.11 (16:20) 0 0 0 0 0
07-08-2020 27.7 (14:40) 21.4 (00:00) 24.6 14.72 (13:10) 9.44 (13:10) 0 0 0 0 0
06-08-2020 28.2 (18:20) 19 (00:00) 23.6 11.11 (17:10) 6.94 (17:00) 0 0 0 0 0
05-08-2020 29.2 (14:10) 18.9 (00:00) 24.1 10.83 (13:50) 6.11 (13:40) 0 0 0 0 0
04-08-2020 31.8 (15:10) 21.7 (23:59) 26.8 18.06 (08:20) 11.11 (10:50) 0 0 0 0 0
03-08-2020 33.2 (15:50) 25.3 (22:30) 29.3 20.28 (16:40) 12.5 (17:10) 0 0 0 0 0
02-08-2020 33.2 (17:00) 21.4 (00:00) 27.3 16.67 (15:20) 10 (15:20) 0 0 0 0 0
01-08-2020 27.9 (16:10) 21.6 (00:00) 24.8 13.06 (17:10) 8.33 (15:00) 0 0 0 0 0
31-07-2020 27 (14:50) 21.2 (06:30) 24.1 13.61 (02:00) 8.06 (13:00) 0 0 0 0 0
30-07-2020 27.3 (13:40) 20.8 (00:00) 24 16.11 (16:50) 9.72 (15:40) 0 0 0 0 0
29-07-2020 28.5 (14:00) 21.5 (00:00) 25 19.17 (07:40) 12.5 (07:10) 0 0 0 0 0
28-07-2020 28.3 (13:50) 21.8 (00:00) 25 19.44 (15:00) 13.33 (15:00) 0 0 0 0 0
27-07-2020 29.6 (13:50) 21.1 (00:00) 25.4 18.89 (01:00) 10.83 (07:50) 0 0 0 0 0
26-07-2020 28.3 (13:40) 21.5 (00:00) 24.9 19.17 (14:40) 12.22 (14:30) 0 0 0 0 0
25-07-2020 31.3 (16:30) 18.3 (00:00) 24.8 16.39 (23:00) 10.28 (14:10) 0 0 0 0 0
24-07-2020 29.9 (16:10) 21.3 (00:00) 25.6 18.33 (09:30) 11.39 (09:40) 0 0 0 0 0
23-07-2020 29.5 (14:40) 21.9 (00:00) 25.7 17.5 (14:30) 10.83 (15:40) 0 0 0 0 0
22-07-2020 28.2 (14:50) 21.6 (00:00) 24.9 17.22 (15:40) 10.56 (15:40) 0 0 0 0 0
21-07-2020 27.2 (15:20) 21.3 (00:00) 24.3 18.33 (01:30) 11.94 (01:20) 0 0 0 0 0
20-07-2020 31.6 (00:10) 22.3 (00:00) 26.9 19.72 (15:40) 13.06 (14:40) 0 0 0 0 0
19-07-2020 38.5 (15:40) 28 (00:00) 33.3 18.33 (16:00) 11.39 (11:10) 0 0 0 0 0
18-07-2020 35.6 (15:40) 20 (00:00) 27.8 13.06 (16:10) 7.78 (16:10) 0 0 0 0 0
17-07-2020 30.7 (15:50) 20.4 (00:00) 25.6 7.78 (13:40) 4.72 (17:20) 0 0 0 0 0
16-07-2020 29.5 (15:10) 20.4 (00:00) 24.9 10.56 (01:30) 7.22 (01:30) 0 0 0 0 0
15-07-2020 31.3 (14:40) 20.4 (00:00) 25.8 16.39 (16:40) 10.56 (16:40) 0 0 0 0 0

Gráficas

Temp. máximas Temp. mínimas Temp. medias Precipitaciones Rachas de viento máximas Velocidades máximas media en intervalos de 10 minutos

Datos horarios

Fecha y hora oficial Temperatura (ºC) Velocidad del viento (km/h) Dirección del viento Racha (km/h) Dirección de racha Precipitación (mm) Presión (hPa) Tendencia (hPa) Humedad (%)
2020-08-13 23:00:00 22.7 32 Norte 49 Norte 0 -- -- 67
2020-08-13 22:00:00 22.8 30 Norte 50 Nordeste 0 -- -- 67
2020-08-13 21:00:00 22.9 31 Norte 53 Nordeste 0 -- -- 68
2020-08-13 20:00:00 24.4 27 Nordeste 51 Nordeste 0 -- -- 63
2020-08-13 19:00:00 25.5 27 Nordeste 57 Nordeste 0 -- -- 62
2020-08-13 18:00:00 26.4 33 Nordeste 56 Nordeste 0 -- -- 57
2020-08-13 17:00:00 26.8 33 Nordeste 59 Norte 0 -- -- 56
2020-08-13 16:00:00 26.8 35 Nordeste 59 Nordeste 0 -- -- 56
2020-08-13 15:00:00 27.4 36 Nordeste 59 Nordeste 0 -- -- 54
2020-08-13 14:00:00 26.9 39 Nordeste 62 Norte 0 -- -- 55
2020-08-13 13:00:00 26.5 37 Nordeste 64 Nordeste 0 -- -- 57
2020-08-13 12:00:00 -- -- -- -- -- -- -- -- --
2020-08-13 11:00:00 25.2 37 Nordeste 62 Nordeste 0 -- -- 58
2020-08-13 10:00:00 24.1 32 Nordeste 61 Nordeste 0 -- -- 65
2020-08-13 09:00:00 23.1 38 Nordeste 68 Norte 0 -- -- 65
2020-08-13 08:00:00 22.1 40 Nordeste 67 Nordeste 0 -- -- 67
2020-08-13 07:00:00 21.9 36 Nordeste 64 Nordeste 0 -- -- 71
2020-08-13 06:00:00 22.1 36 Nordeste 60 Nordeste 0 -- -- 71
2020-08-13 05:00:00 22.4 33 Norte 66 Nordeste 0 -- -- 68
2020-08-13 04:00:00 22.1 -- -- -- -- 0 -- -- --
2020-08-13 03:00:00 22.6 40 Nordeste 65 Nordeste 0 -- -- 66
2020-08-13 02:00:00 22.7 36 Nordeste 59 Norte 0 -- -- 65
2020-08-13 01:00:00 22.7 31 Nordeste 62 Nordeste 0 -- -- 68
2020-08-13 00:00:00 22.7 34 Nordeste 67 Nordeste 0 -- -- 70
2020-08-12 23:00:00 22.7 35 Nordeste 60 Nordeste 0 -- -- 68
2020-08-12 22:00:00 22.8 36 Nordeste 64 Nordeste 0 -- -- 68
2020-08-12 21:00:00 23.1 40 Nordeste 64 Nordeste 0 -- -- 65
2020-08-12 20:00:00 24.2 35 Nordeste 64 Norte 0 -- -- 64
2020-08-12 19:00:00 25 40 Nordeste 65 Nordeste 0 -- -- 64
2020-08-12 18:00:00 26.7 35 Nordeste 65 Nordeste 0 -- -- 56
2020-08-12 17:00:00 26.8 38 Nordeste 67 Nordeste 0 -- -- 55
2020-08-12 16:00:00 27.7 37 Nordeste 67 Nordeste 0 -- -- 54
2020-08-12 15:00:00 27.5 41 Nordeste 70 Nordeste 0 -- -- 55
2020-08-12 14:00:00 27.8 40 Nordeste 63 Nordeste 0 -- -- 52
2020-08-12 13:00:00 -- -- -- -- -- -- -- -- --
2020-08-12 12:00:00 26.2 36 Nordeste 63 Norte 0 -- -- 55
2020-08-12 11:00:00 25.7 33 Nordeste 63 Nordeste 0 -- -- 60
2020-08-12 10:00:00 24.6 35 Nordeste 64 Nordeste 0 -- -- 59
2020-08-12 09:00:00 23.4 41 Norte 66 Nordeste 0 -- -- 62
2020-08-12 08:00:00 22.4 37 Nordeste 63 Norte 0 -- -- 68
2020-08-12 07:00:00 22.3 37 Nordeste 63 Norte 0 -- -- 68
2020-08-12 06:00:00 22.5 41 Nordeste 67 Nordeste 0 -- -- 64
2020-08-12 05:00:00 22.5 39 Nordeste 63 Norte 0 -- -- 65
2020-08-12 04:00:00 22.4 28 Nordeste 49 Nordeste 0 -- -- 68
2020-08-12 03:00:00 22.4 29 Nordeste 64 Nordeste 0 -- -- 71
2020-08-12 02:00:00 22.8 30 Norte 60 Nordeste 0 -- -- 66
2020-08-12 01:00:00 22.4 33 Nordeste 59 Nordeste 0 -- -- 71
2020-08-12 00:00:00 23 36 Nordeste 59 Nordeste 0 -- -- 66
2020-08-11 23:00:00 22.5 36 Nordeste 64 Nordeste 0 -- -- 73
2020-08-11 22:00:00 22.9 32 Nordeste 62 Norte 0 -- -- 71
2020-08-11 21:00:00 23.8 34 Norte 62 Norte 0 -- -- 61
2020-08-11 20:00:00 25.1 36 Norte 65 Norte 0 -- -- 56
2020-08-11 19:00:00 26.1 37 Nordeste 60 Nordeste 0 -- -- 54
2020-08-11 18:00:00 27 37 Nordeste 59 Nordeste 0 -- -- 52
2020-08-11 17:00:00 28 34 Nordeste 63 Nordeste 0 -- -- 49
2020-08-11 16:00:00 27.7 36 Nordeste 63 Nordeste 0 -- -- 51
2020-08-11 15:00:00 27.1 39 Nordeste 64 Nordeste 0 -- -- 53
2020-08-11 14:00:00 27.7 32 Nordeste 57 Nordeste 0 -- -- 51
2020-08-11 13:00:00 26.9 37 Nordeste 59 Nordeste 0 -- -- 56
2020-08-11 12:00:00 26.3 38 Nordeste 62 Nordeste 0 -- -- 55
2020-08-11 11:00:00 25.4 35 Nordeste 58 Nordeste 0 -- -- 61
2020-08-11 10:00:00 24.2 32 Nordeste 56 Nordeste 0 -- -- 62
2020-08-11 09:00:00 23.3 31 Nordeste 51 Norte 0 -- -- 67
2020-08-11 08:00:00 22.5 30 Nordeste 53 Nordeste 0 -- -- 69
2020-08-11 07:00:00 22.2 27 Nordeste 53 Norte 0 -- -- 71
2020-08-11 06:00:00 22.5 35 Norte 57 Norte 0 -- -- 69
2020-08-11 05:00:00 22.5 35 Norte 59 Nordeste 0 -- -- 68
2020-08-11 04:00:00 22.7 35 Norte 59 Norte 0 -- -- 66
2020-08-11 03:00:00 22.8 32 Norte 55 Nordeste 0 -- -- 67
2020-08-11 02:00:00 22.7 26 Norte 49 Norte 0 -- -- 65
2020-08-11 01:00:00 22.8 30 Norte 52 Norte 0 -- -- 67
2020-08-11 00:00:00 22.8 26 Norte 46 Norte 0 -- -- 67
2020-08-10 23:00:00 23.2 24 Norte 50 Nordeste 0 -- -- 65
2020-08-10 22:00:00 23.1 25 Nordeste 41 Nordeste 0 -- -- 70
2020-08-10 21:00:00 23.7 12 Norte 22 Nordeste 0 -- -- 71
2020-08-10 20:00:00 24.6 12 Sudoeste 42 Nordeste 0 -- -- 72
2020-08-10 19:00:00 25.9 27 Norte 55 Nordeste 0 -- -- 62
2020-08-10 18:00:00 26.8 35 Nordeste 57 Nordeste 0 -- -- 59
2020-08-10 17:00:00 27.7 36 Nordeste 61 Nordeste 0 -- -- 54
2020-08-10 16:00:00 28.1 33 Nordeste 60 Norte 0 -- -- 53
2020-08-10 15:00:00 27.6 37 Nordeste 64 Nordeste 0 -- -- 55
2020-08-10 14:00:00 27.7 40 Nordeste 67 Nordeste 0 -- -- 54
2020-08-10 13:00:00 27 35 Nordeste 61 Nordeste 0 -- -- 59
2020-08-10 12:00:00 26.1 35 Nordeste 59 Nordeste 0 -- -- 61
2020-08-10 11:00:00 25.3 33 Norte 58 Nordeste 0 -- -- 65
2020-08-10 10:00:00 23.7 36 Nordeste 60 Nordeste 0 -- -- 73
2020-08-10 09:00:00 23.2 33 Nordeste 62 Nordeste 0 -- -- 71
2020-08-10 08:00:00 22.3 22 Norte 42 Norte 0 -- -- 74
2020-08-10 07:00:00 22.6 24 Norte 51 Nordeste 0 -- -- 73
2020-08-10 06:00:00 23 34 Nordeste 55 Nordeste 0 -- -- 71
2020-08-10 05:00:00 22.8 18 Norte 40 Nordeste 0 -- -- 68
2020-08-10 04:00:00 23 29 Nordeste 59 Norte 0 -- -- 66
2020-08-10 03:00:00 22.7 39 Nordeste 65 Nordeste 0 -- -- 70
2020-08-10 02:00:00 22.8 31 Nordeste 50 Nordeste 0 -- -- 67
2020-08-10 01:00:00 22.8 -- -- -- -- 0 -- -- 69
2020-08-10 00:00:00 23.1 37 Norte 66 Norte 0 -- -- 66
2020-08-09 23:00:00 22.7 35 Nordeste 57 Norte 0 -- -- 69
2020-08-09 22:00:00 22.8 30 Norte 46 Nordeste 0 -- -- 70
2020-08-09 21:00:00 23.9 8 Noroeste 42 Nordeste 0 -- -- 63
2020-08-09 20:00:00 25 28 Norte 44 Nordeste 0 -- -- 61
2020-08-09 19:00:00 26.8 22 Norte 44 Norte 0 -- -- 56
2020-08-09 18:00:00 25.5 14 Sudoeste 27 Sur 0 -- -- 68
2020-08-09 17:00:00 28.6 9 Nordeste 47 Nordeste 0 -- -- 52
2020-08-09 16:00:00 29.1 25 Norte 51 Nordeste 0 -- -- 51
2020-08-09 15:00:00 29.2 34 Nordeste 59 Nordeste 0 -- -- 48
2020-08-09 14:00:00 29.9 28 Nordeste 54 Nordeste 0 -- -- 46
2020-08-09 13:00:00 27.9 29 Norte 58 Nordeste 0 -- -- 53
2020-08-09 12:00:00 27.2 28 Nordeste 56 Nordeste 0 -- -- 55
2020-08-09 11:00:00 25.8 33 Nordeste 58 Norte 0 -- -- 58
2020-08-09 10:00:00 25.4 11 Norte 30 Norte 0 -- -- 59
2020-08-09 09:00:00 23.4 14 Norte 31 Norte 0 -- -- 65
2020-08-09 08:00:00 21.6 10 Norte 41 Nordeste 0 -- -- 73
2020-08-09 07:00:00 21.5 21 Norte 38 Norte 0 -- -- 74
2020-08-09 06:00:00 20.4 7 Norte 27 Nordeste 0 -- -- 84
2020-08-09 05:00:00 19.8 3 Oeste 8 Oeste 0 -- -- 88
2020-08-09 04:00:00 20.4 4 Nordeste 15 Este 0 -- -- 80
2020-08-09 03:00:00 21.1 4 Oeste 14 Noroeste 0 -- -- 79
2020-08-09 02:00:00 22.1 6 Norte 37 Norte 0 -- -- 69
2020-08-09 01:00:00 22.2 11 Norte 37 Norte 0 -- -- 69
2020-08-09 00:00:00 22.3 24 Norte 38 Norte 0 -- -- 69
2020-08-08 23:00:00 21.4 3 Nordeste 40 Nordeste 0 -- -- 65
2020-08-08 22:00:00 22.6 22 Norte 57 Norte 0 -- -- 70
2020-08-08 21:00:00 23.1 23 Nordeste 49 Nordeste 0 -- -- 69
2020-08-08 20:00:00 24.7 29 Nordeste 52 Nordeste 0 -- -- 65
2020-08-08 19:00:00 26.7 25 Nordeste 42 Norte 0 -- -- 58
2020-08-08 18:00:00 28 14 Norte 52 Nordeste 0 -- -- 55
2020-08-08 17:00:00 27.7 37 Nordeste 63 Nordeste 0 -- -- 56
2020-08-08 16:00:00 28.1 35 Nordeste 63 Nordeste 0 -- -- 54
2020-08-08 15:00:00 28.3 34 Nordeste 58 Norte 0 -- -- 54
2020-08-08 14:00:00 27.7 29 Nordeste 53 Nordeste 0 -- -- 55
2020-08-08 13:00:00 26.5 33 Nordeste 60 Nordeste 0 -- -- 60
2020-08-08 12:00:00 26.7 36 Nordeste 63 Nordeste 0 -- -- 58
2020-08-08 11:00:00 25.9 31 Nordeste 62 Norte 0 -- -- 61
2020-08-08 10:00:00 24.7 26 Nordeste 53 Nordeste 0 -- -- 62
2020-08-08 09:00:00 23.3 26 Norte 50 Norte 0 -- -- 67
2020-08-08 08:00:00 21.6 7 Norte 29 Norte 0 -- -- 72
2020-08-08 07:00:00 20.6 7 Norte 15 Norte 0 -- -- 77
2020-08-08 06:00:00 19.7 3 Noroeste 13 Noroeste 0 -- -- 83
2020-08-08 05:00:00 21.9 17 Norte 31 Norte 0 -- -- 73
2020-08-08 04:00:00 22.1 22 Norte 42 Nordeste 0 -- -- 74
2020-08-08 03:00:00 22 21 Norte 36 Norte 0 -- -- 72
2020-08-08 02:00:00 22.1 22 Norte 40 Norte 0 -- -- 72
2020-08-08 01:00:00 22.2 25 Norte 42 Norte 0 -- -- 71
2020-08-08 00:00:00 22.3 19 Nordeste 37 Norte 0 -- -- 72
2020-08-07 23:00:00 22.9 25 Norte 40 Norte 0 -- -- 68
2020-08-07 22:00:00 22.9 19 Norte 32 Norte 0 -- -- 66
2020-08-07 21:00:00 23.4 9 Sudoeste 43 Nordeste 0 -- -- 69
2020-08-07 20:00:00 25.3 21 Nordeste 48 Nordeste 0 -- -- 60
2020-08-07 19:00:00 25.8 32 Nordeste 49 Nordeste 0 -- -- 60
2020-08-07 18:00:00 26.8 25 Nordeste 51 Nordeste 0 -- -- 60
2020-08-07 17:00:00 27.1 28 Nordeste 44 Nordeste 0 -- -- 56
2020-08-07 16:00:00 27.7 24 Nordeste 40 Nordeste 0 -- -- 54
2020-08-07 15:00:00 27.7 22 Nordeste 48 Nordeste 0 -- -- 55
2020-08-07 14:00:00 27.4 30 Nordeste 53 Nordeste 0 -- -- 56
2020-08-07 13:00:00 26.9 30 Nordeste 49 Nordeste 0 -- -- 56
2020-08-07 12:00:00 26.5 26 Nordeste 46 Nordeste 0 -- -- 57
2020-08-07 11:00:00 25.7 23 Nordeste 43 Nordeste 0 -- -- 59
2020-08-07 10:00:00 24 27 Norte 40 Norte 0 -- -- 65
2020-08-07 09:00:00 23.5 11 Norte 27 Norte 0 -- -- 70
2020-08-07 08:00:00 21.9 16 Norte 30 Norte 0 -- -- 71
2020-08-07 07:00:00 21.7 17 Norte 29 Norte 0 -- -- 72
2020-08-07 06:00:00 21.8 15 Norte 29 Norte 0 -- -- 72
2020-08-07 05:00:00 21.9 12 Nordeste 31 Norte 0 -- -- 72
2020-08-07 04:00:00 22.2 15 Norte 35 Nordeste 0 -- -- 73
2020-08-07 03:00:00 22.1 14 Nordeste 31 Nordeste 0 -- -- 72
2020-08-07 02:00:00 22.2 13 Nordeste 21 Nordeste 0 -- -- 73
2020-08-07 01:00:00 22.4 5 Noroeste 24 Norte 0 -- -- 79
2020-08-07 00:00:00 22.2 3 Oeste 11 Sudoeste 0 -- -- 80
2020-08-06 23:00:00 22.1 5 Sudoeste 13 Sudoeste 0 -- -- 86
2020-08-06 22:00:00 22 8 Sur 17 Sudoeste 0 -- -- 85
2020-08-06 21:00:00 22.8 11 Sudoeste 19 Sudoeste 0 -- -- 79
2020-08-06 20:00:00 24.8 13 Sur 20 Sudoeste 0 -- -- 67
2020-08-06 19:00:00 26.6 9 Sur 28 Sudoeste 0 -- -- 61
2020-08-06 18:00:00 27.2 19 Nordeste 40 Este 0 -- -- 58
2020-08-06 17:00:00 27 25 Nordeste 37 Nordeste 0 -- -- 57
2020-08-06 16:00:00 27.3 22 Nordeste 35 Nordeste 0 -- -- 57
2020-08-06 15:00:00 25.9 6 Norte 18 Sudoeste 0 -- -- 64
2020-08-06 14:00:00 25.4 11 Sudoeste 27 Sur 0 -- -- 66
2020-08-06 13:00:00 27.7 18 Sudoeste 30 Sur 0 -- -- 57
2020-08-06 12:00:00 26.5 12 Sur 33 Nordeste 0 -- -- 62
2020-08-06 11:00:00 26.4 15 Nordeste 29 Nordeste 0 -- -- 59
2020-08-06 10:00:00 25.2 10 Nordeste 22 Este 0 -- -- 63
2020-08-06 09:00:00 23 5 Norte 12 Norte 0 -- -- 72
2020-08-06 08:00:00 19.5 5 Noroeste 9 Oeste 0 -- -- 88
2020-08-06 07:00:00 19.7 6 Norte 9 Norte 0 -- -- 88
2020-08-06 06:00:00 19.9 5 Sudeste 9 Sudeste 0 -- -- 89
2020-08-06 05:00:00 19.5 2 Norte 8 Sudoeste 0 -- -- 90
2020-08-06 04:00:00 19.7 4 Oeste 7 Oeste 0 -- -- 89
2020-08-06 03:00:00 19.5 2 Nordeste 5 Sur 0 -- -- 89
2020-08-06 02:00:00 20.4 3 Sudoeste 5 Sudoeste 0 -- -- 90
2020-08-06 01:00:00 21 0 Calma 8 Sudoeste 0 -- -- 87
2020-08-06 00:00:00 21.1 6 Sudoeste 13 Sudoeste 0 -- -- 89
2020-08-05 23:00:00 21.3 5 Sudoeste 11 Sur 0 -- -- 86
2020-08-05 22:00:00 21.7 5 Sur 15 Sudoeste 0 -- -- 84
2020-08-05 21:00:00 22.2 9 Sudoeste 15 Sur 0 -- -- 81
2020-08-05 20:00:00 24.1 11 Sudoeste 18 Sudoeste 0 -- -- 73
2020-08-05 19:00:00 24.9 12 Sur 19 Sur 0 -- -- 71
2020-08-05 18:00:00 26.2 13 Sur 28 Sudoeste 0 -- -- 64
2020-08-05 17:00:00 27 17 Sur 27 Sur 0 -- -- 63
2020-08-05 16:00:00 27.4 16 Sur 30 Sudoeste 0 -- -- 61
2020-08-05 15:00:00 27.9 20 Sudoeste 29 Sudoeste 0 -- -- 58
2020-08-05 14:00:00 29.1 14 Norte 39 Nordeste 0 -- -- 51
2020-08-05 13:00:00 28.4 21 Nordeste 39 Nordeste 0 -- -- 54
2020-08-05 12:00:00 26.9 15 Sudoeste 29 Sudoeste 0 -- -- 60
2020-08-05 11:00:00 26.7 9 Sur 18 Sudoeste 0 -- -- 62
2020-08-05 10:00:00 24.8 9 Sudoeste 15 Sur 0 -- -- 69
2020-08-05 09:00:00 22.7 6 Sur 12 Sur 0 -- -- 85
2020-08-05 08:00:00 19.7 3 Oeste 8 Sudoeste 0 -- -- 94
2020-08-05 07:00:00 19.3 4 Oeste 6 Sur 0 -- -- 93
2020-08-05 06:00:00 19.3 0 Calma 10 Sudoeste 0 -- -- 92
2020-08-05 05:00:00 20.6 0 Calma 22 Norte 0 -- -- 93
2020-08-05 04:00:00 21.8 7 Norte 20 Nordeste 0 -- -- 81
2020-08-05 03:00:00 20.8 3 Oeste 10 Sur 0 -- -- 92
2020-08-05 02:00:00 21.3 6 Sudoeste 15 Sudoeste 0 -- -- 93
2020-08-05 01:00:00 20.7 5 Sur 12 Sudoeste 0 -- -- 91
2020-08-05 00:00:00 21.7 5 Oeste 16 Sudoeste 0 -- -- 89
2020-08-04 23:00:00 23.1 12 Norte 34 Nordeste 0 -- -- 68
2020-08-04 22:00:00 23.4 21 Nordeste 35 Norte 0 -- -- 68
2020-08-04 21:00:00 23.8 17 Norte 31 Nordeste 0 -- -- 66
2020-08-04 20:00:00 25.3 8 Sudoeste 22 Sur 0 -- -- 67
2020-08-04 19:00:00 27 14 Sur 26 Sudoeste 0 -- -- 63
2020-08-04 18:00:00 27.9 15 Sur 43 Este 0 -- -- 60
2020-08-04 17:00:00 29.3 15 Sudeste 32 Sur 0 -- -- 53
2020-08-04 16:00:00 26.9 21 Sudoeste 37 Nordeste 0 -- -- 64
2020-08-04 15:00:00 31.2 21 Nordeste 45 Nordeste 0 -- -- 45
2020-08-04 14:00:00 30.4 29 Nordeste 52 Nordeste 0 -- -- 47
2020-08-04 13:00:00 28.6 32 Nordeste 55 Nordeste 0 -- -- 54
2020-08-04 12:00:00 27.5 34 Nordeste 65 Nordeste 0 -- -- 57
2020-08-04 11:00:00 25.4 38 Nordeste 65 Nordeste 0 -- -- 65
2020-08-04 10:00:00 24.8 29 Nordeste 59 Norte 0 -- -- 66
2020-08-04 09:00:00 23.6 31 Norte 65 Norte 0 -- -- 69
2020-08-04 08:00:00 22.7 31 Nordeste 56 Nordeste 0 -- -- 72
2020-08-04 07:00:00 22.3 24 Norte 40 Nordeste 0 -- -- 71
2020-08-04 06:00:00 23.6 12 Nordeste 34 Norte 0 -- -- 55
2020-08-04 05:00:00 25.1 18 Nordeste 43 Norte 0 -- -- 34
2020-08-04 04:00:00 24.8 24 Norte 43 Nordeste 0 -- -- 36
2020-08-04 03:00:00 25.5 28 Nordeste 48 Norte 0 -- -- 33
2020-08-04 02:00:00 27.2 30 Nordeste 56 Nordeste 0 -- -- 24
2020-08-04 01:00:00 27.4 33 Nordeste 58 Nordeste 0 -- -- 26
2020-08-04 00:00:00 26.5 34 Nordeste 57 Norte 0 -- -- 31
2020-08-03 23:00:00 25.5 32 Nordeste 51 Nordeste 0 -- -- 42
2020-08-03 22:00:00 26.6 32 Nordeste 62 Nordeste 0 -- -- 36
2020-08-03 21:00:00 28.3 37 Nordeste 64 Nordeste 0 -- -- 21
2020-08-03 20:00:00 28.5 36 Nordeste 60 Nordeste 0 -- -- 30
2020-08-03 19:00:00 30.1 35 Nordeste 58 Nordeste 0 -- -- 33
2020-08-03 18:00:00 30.7 42 Nordeste 72 Norte 0 -- -- 29
2020-08-03 17:00:00 31.2 43 Nordeste 73 Nordeste 0 -- -- 28
2020-08-03 16:00:00 32.7 41 Nordeste 67 Nordeste 0 -- -- 28
2020-08-03 15:00:00 32.7 38 Nordeste 65 Nordeste 0 -- -- 34
2020-08-03 14:00:00 32.3 31 Nordeste 52 Norte 0 -- -- 40
2020-08-03 13:00:00 31.4 33 Nordeste 57 Nordeste 0 -- -- 38
2020-08-03 12:00:00 28.9 34 Nordeste 58 Nordeste 0 -- -- 50
2020-08-03 11:00:00 28.6 31 Nordeste 53 Nordeste 0 -- -- 52
2020-08-03 10:00:00 29.5 28 Nordeste 54 Nordeste 0 -- -- 44
2020-08-03 09:00:00 30.1 31 Nordeste 54 Nordeste 0 -- -- 35
2020-08-03 08:00:00 28.3 34 Nordeste 55 Nordeste 0 -- -- 37
2020-08-03 07:00:00 26.9 36 Nordeste 59 Norte 0 -- -- 45
2020-08-03 06:00:00 26.4 32 Nordeste 47 Nordeste 0 -- -- 47
2020-08-03 05:00:00 27.1 30 Nordeste 52 Nordeste 0 -- -- 43
2020-08-03 04:00:00 26.5 35 Nordeste 56 Nordeste 0 -- -- 45
2020-08-03 03:00:00 27.2 31 Nordeste 57 Nordeste 0 -- -- 42
2020-08-03 02:00:00 27.5 36 Nordeste 56 Norte 0 -- -- 40
2020-08-03 01:00:00 26.8 35 Nordeste 54 Nordeste 0 -- -- 42
2020-08-03 00:00:00 26.2 27 Nordeste 51 Nordeste 0 -- -- 47
2020-08-02 23:00:00 24.5 10 Norte 21 Norte 0 -- -- 68
2020-08-02 22:00:00 25.1 7 Este 28 Norte 0 -- -- 63
2020-08-02 21:00:00 26.3 10 Nordeste 31 Nordeste 0 -- -- 60
2020-08-02 20:00:00 27.9 17 Nordeste 42 Nordeste 0 -- -- 54
2020-08-02 19:00:00 28.6 22 Nordeste 41 Nordeste 0 -- -- 56
2020-08-02 18:00:00 31 23 Nordeste 48 Nordeste 0 -- -- 46
2020-08-02 17:00:00 33.2 30 Nordeste 58 Nordeste 0 -- -- 32
2020-08-02 16:00:00 30.7 32 Nordeste 60 Nordeste 0 -- -- 50
2020-08-02 15:00:00 30.1 31 Nordeste 52 Nordeste 0 -- -- 53
2020-08-02 14:00:00 32.7 14 Nordeste 35 Norte 0 -- -- 46
2020-08-02 13:00:00 31.4 18 Nordeste 42 Norte 0 -- -- 48
2020-08-02 12:00:00 29.4 17 Norte 34 Nordeste 0 -- -- 54
2020-08-02 11:00:00 28 6 Sur 31 Norte 0 -- -- 59
2020-08-02 10:00:00 27.2 10 Nordeste 22 Nordeste 0 -- -- 54
2020-08-02 09:00:00 24.9 4 Sur 17 Nordeste 0 -- -- 73
2020-08-02 08:00:00 23.2 3 Noroeste 16 Norte 0 -- -- 66
2020-08-02 07:00:00 22.4 4 Noroeste 21 Norte 0 -- -- 81
2020-08-02 06:00:00 21.9 6 Sudoeste 12 Sudoeste 0 -- -- 86
2020-08-02 05:00:00 21.7 2 Norte 8 Norte 0 -- -- 88
2020-08-02 04:00:00 21.4 3 Sudeste 10 Sudoeste 0 -- -- 86
2020-08-02 03:00:00 22.6 3 Sudoeste 18 Norte 0 -- -- 82
2020-08-02 02:00:00 22.3 5 Noroeste 14 Norte 0 -- -- 85
2020-08-02 01:00:00 23 9 Norte 31 Norte 0 -- -- 78
2020-08-02 00:00:00 22.9 18 Norte 34 Norte 0 -- -- 79
2020-08-01 23:00:00 22.1 0 Calma 10 Sudeste 0 -- -- 86
2020-08-01 22:00:00 22.8 7 Sudeste 15 Sudoeste 0 -- -- 84
2020-08-01 21:00:00 24.2 6 Sur 28 Nordeste 0 -- -- 72
2020-08-01 20:00:00 27.5 15 Nordeste 31 Norte 0 -- -- 47
2020-08-01 19:00:00 26.7 18 Nordeste 42 Nordeste 0 -- -- 63
2020-08-01 18:00:00 26.3 24 Nordeste 47 Nordeste 0 -- -- 67
2020-08-01 17:00:00 26.9 26 Nordeste 44 Nordeste 0 -- -- 64
2020-08-01 16:00:00 27.8 26 Nordeste 43 Nordeste 0 -- -- 61
2020-08-01 15:00:00 27 30 Nordeste 41 Nordeste 0 -- -- 63
2020-08-01 14:00:00 26.2 27 Nordeste 40 Nordeste 0 -- -- 65
2020-08-01 13:00:00 25.5 23 Nordeste 39 Nordeste 0 -- -- 67
2020-08-01 12:00:00 26.1 22 Nordeste 38 Nordeste 0 -- -- 65
2020-08-01 11:00:00 23.6 22 Nordeste 38 Nordeste 0 -- -- 73
2020-08-01 10:00:00 23.3 21 Nordeste 38 Nordeste 0 -- -- 75
2020-08-01 09:00:00 22.9 18 Nordeste 33 Norte 0 -- -- 78
2020-08-01 08:00:00 21.9 13 Norte 27 Norte 0 -- -- 81
2020-08-01 07:00:00 21.8 13 Nordeste 26 Norte 0 -- -- 81
2020-08-01 06:00:00 21.8 16 Nordeste 31 Nordeste 0 -- -- 81
2020-08-01 05:00:00 21.8 15 Nordeste 30 Nordeste 0 -- -- 81
2020-08-01 04:00:00 21.9 16 Nordeste 31 Nordeste 0 -- -- 80
2020-08-01 03:00:00 21.9 17 Nordeste 32 Nordeste 0 -- -- 82
2020-08-01 02:00:00 22 14 Nordeste 37 Nordeste 0 -- -- 81
2020-08-01 01:00:00 22.2 20 Nordeste 39 Nordeste 0 -- -- 78
2020-08-01 00:00:00 22.2 20 Nordeste 39 Nordeste 0 -- -- 78
2020-07-31 23:00:00 22.2 21 Nordeste 36 Nordeste 0 -- -- 79
2020-07-31 22:00:00 22.4 24 Nordeste 40 Nordeste 0 -- -- 78
2020-07-31 21:00:00 22.9 20 Nordeste 40 Norte 0 -- -- 74
2020-07-31 20:00:00 23.7 21 Nordeste 42 Nordeste 0 -- -- 72
2020-07-31 19:00:00 25 22 Nordeste 42 Nordeste 0 -- -- 68
2020-07-31 18:00:00 25.6 23 Nordeste 44 Nordeste 0 -- -- 65
2020-07-31 17:00:00 25.7 26 Nordeste 43 Nordeste 0 -- -- 63
2020-07-31 16:00:00 26.6 25 Nordeste 45 Nordeste 0 -- -- 60
2020-07-31 15:00:00 26.3 25 Nordeste 39 Nordeste 0 -- -- 60
2020-07-31 14:00:00 25.8 23 Nordeste 39 Nordeste 0 -- -- 62
2020-07-31 13:00:00 25.2 29 Nordeste 41 Nordeste 0 -- -- 64
2020-07-31 12:00:00 25.4 22 Nordeste 40 Norte 0 -- -- 64
2020-07-31 11:00:00 24.5 21 Nordeste 37 Nordeste 0 -- -- 65
2020-07-31 10:00:00 23.7 18 Nordeste 37 Norte 0 -- -- 69
2020-07-31 09:00:00 22.2 17 Nordeste 27 Nordeste 0 -- -- 76
2020-07-31 08:00:00 21.4 14 Nordeste 32 Nordeste 0 -- -- 79
2020-07-31 07:00:00 21.2 17 Nordeste 31 Nordeste 0 -- -- 76
2020-07-31 06:00:00 21.5 18 Norte 33 Nordeste 0 -- -- 74
2020-07-31 05:00:00 21.3 15 Nordeste 32 Nordeste 0 -- -- 78
2020-07-31 04:00:00 21.6 20 Nordeste 39 Nordeste 0 -- -- 74
2020-07-31 03:00:00 21.6 22 Nordeste 44 Nordeste 0 -- -- 75
2020-07-31 02:00:00 21.8 28 Nordeste 49 Nordeste 0 -- -- 72
2020-07-31 01:00:00 21.8 24 Nordeste 46 Nordeste 0 -- -- 75
2020-07-31 00:00:00 21.8 29 Nordeste 46 Nordeste 0 -- -- 74
2020-07-30 23:00:00 22 23 Nordeste 42 Norte 0 -- -- 73
2020-07-30 22:00:00 22 22 Nordeste 42 Norte 0 -- -- 72
2020-07-30 21:00:00 22.7 23 Nordeste 39 Norte 0 -- -- 70
2020-07-30 20:00:00 24 23 Nordeste 46 Norte 0 -- -- 64
2020-07-30 19:00:00 24.7 27 Nordeste 46 Nordeste 0 -- -- 65
2020-07-30 18:00:00 25.2 28 Nordeste 57 Nordeste 0 -- -- 64
2020-07-30 17:00:00 25.6 30 Nordeste 58 Nordeste 0 -- -- 60
2020-07-30 16:00:00 26.5 28 Nordeste 53 Nordeste 0 -- -- 58
2020-07-30 15:00:00 27.1 28 Nordeste 48 Nordeste 0 -- -- 54
2020-07-30 14:00:00 27.3 26 Nordeste 53 Nordeste 0 -- -- 54
2020-07-30 13:00:00 26.1 35 Nordeste 57 Nordeste 0 -- -- 56
2020-07-30 12:00:00 25.6 30 Nordeste 47 Norte 0 -- -- 58
2020-07-30 11:00:00 24.9 22 Nordeste 42 Nordeste 0 -- -- 59
2020-07-30 10:00:00 23.6 23 Nordeste 44 Nordeste 0 -- -- 63
2020-07-30 09:00:00 22.1 26 Nordeste 45 Nordeste 0 -- -- 68
2020-07-30 08:00:00 21 21 Nordeste 41 Nordeste 0 -- -- 73
2020-07-30 07:00:00 20.8 24 Norte 50 Nordeste 0 -- -- 73
2020-07-30 06:00:00 20.8 26 Nordeste 48 Norte 0 -- -- 71
2020-07-30 05:00:00 21.1 26 Norte 47 Nordeste 0 -- -- 71
2020-07-30 04:00:00 21.3 22 Norte 36 Nordeste 0 -- -- 69
2020-07-30 03:00:00 21.6 22 Norte 48 Nordeste 0 -- -- 68
2020-07-30 02:00:00 21.6 27 Nordeste 48 Nordeste 0 -- -- 71
2020-07-30 01:00:00 21.8 27 Nordeste 53 Norte 0 -- -- 72
2020-07-30 00:00:00 22 31 Nordeste 54 Norte 0 -- -- 70
2020-07-29 23:00:00 22 27 Nordeste 50 Norte 0 -- -- 69
2020-07-29 22:00:00 22.3 29 Nordeste 56 Nordeste 0 -- -- 69
2020-07-29 21:00:00 22.8 28 Nordeste 59 Norte 0 -- -- 68
2020-07-29 20:00:00 24.2 35 Nordeste 57 Norte 0 -- -- 64
2020-07-29 19:00:00 25.7 34 Nordeste 55 Nordeste 0 -- -- 59
2020-07-29 18:00:00 26.7 35 Norte 59 Nordeste 0 -- -- 54
2020-07-29 17:00:00 27.1 33 Nordeste 64 Nordeste 0 -- -- 55
2020-07-29 16:00:00 27.9 38 Nordeste 66 Nordeste 0 -- -- 52
2020-07-29 15:00:00 27.7 42 Nordeste 63 Nordeste 0 -- -- 53
2020-07-29 14:00:00 28.5 35 Nordeste 69 Norte 0 -- -- 50
2020-07-29 13:00:00 26.6 43 Nordeste 66 Nordeste 0 -- -- 56
2020-07-29 12:00:00 26 41 Nordeste 69 Nordeste 0 -- -- 58
2020-07-29 11:00:00 24.7 43 Norte 69 Norte 0 -- -- 61
2020-07-29 10:00:00 23.8 44 Nordeste 68 Nordeste 0 -- -- 64
2020-07-29 09:00:00 22.9 37 Nordeste 69 Nordeste 0 -- -- 68
2020-07-29 08:00:00 21.9 37 Norte 69 Nordeste 0 -- -- 70
2020-07-29 07:00:00 21.6 37 Norte 63 Norte 0 -- -- 73
2020-07-29 06:00:00 21.7 28 Norte 47 Nordeste 0 -- -- 72
2020-07-29 05:00:00 21.9 15 Norte 46 Norte 0 -- -- 70
2020-07-29 04:00:00 21.9 22 Norte 54 Nordeste 0 -- -- 71
2020-07-29 03:00:00 22 27 Norte 57 Norte 0 -- -- 71
2020-07-29 02:00:00 22 29 Norte 58 Nordeste 0 -- -- 72
2020-07-29 01:00:00 22.2 32 Norte 62 Norte 0 -- -- 73
2020-07-29 00:00:00 22.1 32 Norte 62 Nordeste 0 -- -- 75
2020-07-28 23:00:00 22.4 30 Nordeste 51 Nordeste 0 -- -- 73
2020-07-28 22:00:00 22.3 29 Norte 55 Norte 0 -- -- 74
2020-07-28 21:00:00 22.7 27 Norte 55 Norte 0 -- -- 73
2020-07-28 20:00:00 23.7 36 Norte 60 Nordeste 0 -- -- 69
2020-07-28 19:00:00 25.1 36 Nordeste 65 Nordeste 0 -- -- 65
2020-07-28 18:00:00 26.3 39 Nordeste 63 Nordeste 0 -- -- 61
2020-07-28 17:00:00 26.7 40 Nordeste 66 Norte 0 -- -- 59
2020-07-28 16:00:00 27.8 40 Nordeste 69 Nordeste 0 -- -- 56
2020-07-28 15:00:00 27.4 48 Nordeste 70 Norte 0 -- -- 57
2020-07-28 14:00:00 28 37 Nordeste 60 Nordeste 0 -- -- 56
2020-07-28 13:00:00 27.4 36 Nordeste 65 Nordeste 0 -- -- 58
2020-07-28 12:00:00 25.9 40 Nordeste 63 Norte 0 -- -- 63
2020-07-28 11:00:00 25.1 36 Nordeste 62 Nordeste 0 -- -- 66
2020-07-28 10:00:00 23.9 34 Nordeste 57 Nordeste 0 -- -- 69
2020-07-28 09:00:00 22.9 24 Norte 45 Norte 0 -- -- 72
2020-07-28 08:00:00 22 31 Nordeste 57 Nordeste 0 -- -- 74
2020-07-28 07:00:00 21.8 36 Nordeste 59 Nordeste 0 -- -- 76
2020-07-28 06:00:00 21.8 31 Nordeste 54 Nordeste 0 -- -- 76
2020-07-28 05:00:00 22.4 18 Nordeste 62 Nordeste 0 -- -- 70
2020-07-28 04:00:00 22 35 Nordeste 64 Norte 0 -- -- 74
2020-07-28 03:00:00 22.3 31 Nordeste 55 Nordeste 0 -- -- 75
2020-07-28 02:00:00 22.8 28 Nordeste 57 Nordeste 0 -- -- 72
2020-07-28 01:00:00 22.5 35 Nordeste 63 Nordeste 0 -- -- 75
2020-07-28 00:00:00 22.5 36 Nordeste 60 Nordeste 0 -- -- 76
2020-07-27 23:00:00 22.5 33 Nordeste 52 Nordeste 0 -- -- 76
2020-07-27 22:00:00 23.2 26 Norte 47 Norte 0 -- -- 71
2020-07-27 21:00:00 23.4 31 Nordeste 50 Norte 0 -- -- 71
2020-07-27 20:00:00 24.5 29 Nordeste 50 Norte 0 -- -- 68
2020-07-27 19:00:00 26.7 23 Norte 52 Nordeste 0 -- -- 60
2020-07-27 18:00:00 27.6 27 Norte 57 Nordeste 0 -- -- 57
2020-07-27 17:00:00 28.2 37 Nordeste 62 Nordeste 0 -- -- 55
2020-07-27 16:00:00 28 36 Nordeste 61 Norte 0 -- -- 56
2020-07-27 15:00:00 27.9 35 Nordeste 62 Nordeste 0 -- -- 57
2020-07-27 14:00:00 29.4 28 Nordeste 51 Nordeste 0 -- -- 52
2020-07-27 13:00:00 28.9 28 Nordeste 48 Norte 0 -- -- 52
2020-07-27 12:00:00 27.5 30 Nordeste 57 Norte 0 -- -- 53
2020-07-27 11:00:00 24.8 34 Nordeste 62 Nordeste 0 -- -- 64
2020-07-27 08:00:00 -- -- -- -- -- -- -- -- --
2020-07-27 07:00:00 21.1 34 Nordeste 62 Nordeste 0 -- -- 75
2020-07-27 06:00:00 21.3 29 Norte 58 Norte 0 -- -- 74
2020-07-27 05:00:00 21.6 31 Norte 59 Norte 0 -- -- 74
2020-07-27 04:00:00 21.7 35 Nordeste 62 Norte 0 -- -- 74
2020-07-27 03:00:00 21.8 36 Nordeste 65 Nordeste 0 -- -- 73
2020-07-27 02:00:00 21.6 36 Nordeste 67 Nordeste 0 -- -- 75
2020-07-27 01:00:00 21.7 39 Nordeste 68 Nordeste 0 -- -- 75
2020-07-27 00:00:00 22 40 Nordeste 63 Norte 0 -- -- 72
2020-07-26 23:00:00 22.3 35 Norte 57 Norte 0 -- -- 71
2020-07-26 22:00:00 22.5 31 Norte 56 Norte 0 -- -- 70
2020-07-26 21:00:00 22.8 33 Nordeste 57 Norte 0 -- -- 69
2020-07-26 20:00:00 24.7 28 Norte 53 Nordeste 0 -- -- 61
2020-07-26 19:00:00 26 33 Nordeste 59 Nordeste 0 -- -- 58
2020-07-26 18:00:00 26.9 36 Nordeste 60 Nordeste 0 -- -- 57
2020-07-26 17:00:00 27.2 41 Nordeste 68 Nordeste 0 -- -- 55
2020-07-26 16:00:00 27.5 42 Nordeste 63 Nordeste 0 -- -- 56
2020-07-26 15:00:00 28 40 Nordeste 69 Nordeste 0 -- -- 53
2020-07-26 14:00:00 28 39 Nordeste 64 Nordeste 0 -- -- 52
2020-07-26 13:00:00 27.4 39 Nordeste 66 Nordeste 0 -- -- 55
2020-07-26 12:00:00 27.1 32 Nordeste 58 Nordeste 0 -- -- 54
2020-07-26 11:00:00 26 35 Nordeste 60 Nordeste 0 -- -- 58
2020-07-26 10:00:00 24.8 36 Nordeste 67 Nordeste 0 -- -- 63
2020-07-26 09:00:00 23.7 30 Norte 49 Nordeste 0 -- -- 65
2020-07-26 08:00:00 22.2 30 Nordeste 51 Norte 0 -- -- 70
2020-07-26 07:00:00 22 26 Norte 44 Norte 0 -- -- 70
2020-07-26 06:00:00 21.5 12 Noroeste 33 Norte 0 -- -- 74
2020-07-26 05:00:00 21.8 25 Norte 46 Norte 0 -- -- 72
2020-07-26 04:00:00 22 26 Nordeste 49 Nordeste 0 -- -- 72
2020-07-26 03:00:00 21.9 28 Nordeste 48 Nordeste 0 -- -- 73
2020-07-26 02:00:00 22 27 Nordeste 54 Nordeste 0 -- -- 73
2020-07-26 01:00:00 22.1 33 Nordeste 52 Nordeste 0 -- -- 72
2020-07-26 00:00:00 22.3 31 Nordeste 55 Nordeste 0 -- -- 70
2020-07-25 23:00:00 22.3 35 Nordeste 59 Nordeste 0 -- -- 70
2020-07-25 22:00:00 22.3 31 Nordeste 49 Nordeste 0 -- -- 71
2020-07-25 21:00:00 22.9 27 Nordeste 48 Nordeste 0 -- -- 67
2020-07-25 20:00:00 25.6 22 Nordeste 40 Nordeste 0 -- -- 59
2020-07-25 19:00:00 28.7 22 Nordeste 45 Nordeste 0 -- -- 48
2020-07-25 18:00:00 30.1 29 Nordeste 51 Norte 0 -- -- 44
2020-07-25 17:00:00 31 28 Nordeste 53 Nordeste 0 -- -- 39
2020-07-25 16:00:00 31.1 30 Nordeste 53 Nordeste 0 -- -- 39
2020-07-25 15:00:00 31.1 34 Nordeste 56 Nordeste 0 -- -- 39
2020-07-25 14:00:00 30.5 35 Nordeste 55 Norte 0 -- -- 42
2020-07-25 13:00:00 30.4 30 Nordeste 54 Nordeste 0 -- -- 43
2020-07-25 12:00:00 29 33 Nordeste 57 Nordeste 0 -- -- 48
2020-07-25 11:00:00 27.9 31 Nordeste 48 Nordeste 0 -- -- 49
2020-07-25 10:00:00 26.2 31 Nordeste 48 Nordeste 0 -- -- 54
2020-07-25 09:00:00 24.4 23 Nordeste 35 Norte 0 -- -- 58
2020-07-25 08:00:00 21.1 15 Norte 28 Norte 0 -- -- 71
2020-07-25 07:00:00 18.4 2 Nordeste 7 Oeste 0 -- -- 93
2020-07-25 06:00:00 19.2 4 Sudoeste 8 Sudoeste 0 -- -- 93
2020-07-25 05:00:00 20.2 3 Noroeste 20 Norte 0 -- -- 90
2020-07-25 04:00:00 20.8 7 Norte 19 Norte 0 -- -- 81
2020-07-25 03:00:00 20.2 5 Nordeste 11 Nordeste 0 -- -- 85
2020-07-25 02:00:00 20.4 2 Norte 11 Nordeste 0 -- -- 83
2020-07-25 01:00:00 21.1 2 Sur 23 Nordeste 0 -- -- 80
2020-07-25 00:00:00 22.1 14 Norte 25 Nordeste 0 -- -- 75
2020-07-24 23:00:00 22.5 11 Norte 26 Norte 0 -- -- 73
2020-07-24 22:00:00 22.7 3 Sudoeste 23 Nordeste 0 -- -- 79
2020-07-24 21:00:00 23.4 8 Norte 21 Norte 0 -- -- 76
2020-07-24 20:00:00 25 7 Sur 16 Sudoeste 0 -- -- 74
2020-07-24 19:00:00 25.7 9 Sudoeste 27 Sur 0 -- -- 70
2020-07-24 18:00:00 26.8 17 Sur 35 Nordeste 0 -- -- 63
2020-07-24 17:00:00 29.5 22 Norte 46 Nordeste 0 -- -- 52
2020-07-24 16:00:00 29.8 27 Nordeste 49 Nordeste 0 -- -- 51
2020-07-24 15:00:00 29.6 27 Nordeste 47 Nordeste 0 -- -- 51
2020-07-24 14:00:00 28.2 24 Nordeste 45 Norte 0 -- -- 54
2020-07-24 13:00:00 27.9 26 Nordeste 48 Nordeste 0 -- -- 55
2020-07-24 12:00:00 26.2 32 Norte 57 Norte 0 -- -- 60
2020-07-24 11:00:00 25.4 31 Nordeste 59 Nordeste 0 -- -- 62
2020-07-24 10:00:00 23.9 39 Nordeste 66 Norte 0 -- -- 66
2020-07-24 09:00:00 22.7 31 Nordeste 56 Nordeste 0 -- -- 70
2020-07-24 08:00:00 21.9 29 Norte 56 Nordeste 0 -- -- 70
2020-07-24 07:00:00 21.3 36 Nordeste 62 Norte 0 -- -- 72
2020-07-24 06:00:00 21.3 36 Nordeste 60 Norte 0 -- -- 72
2020-07-24 05:00:00 21.4 34 Nordeste 60 Nordeste 0 -- -- 73
2020-07-24 04:00:00 21.4 38 Nordeste 59 Nordeste 0 -- -- 74
2020-07-24 03:00:00 21.5 33 Nordeste 53 Nordeste 0 -- -- 75
2020-07-24 02:00:00 21.8 32 Nordeste 60 Nordeste 0 -- -- 73
2020-07-24 01:00:00 22.1 33 Nordeste 55 Nordeste 0 -- -- 72
2020-07-24 00:00:00 22.4 32 Nordeste 54 Nordeste 0 -- -- 70
2020-07-23 23:00:00 22.4 31 Nordeste 54 Norte 0 -- -- 70
2020-07-23 22:00:00 22.4 35 Nordeste 56 Nordeste 0 -- -- 73
2020-07-23 21:00:00 23.1 31 Nordeste 55 Nordeste 0 -- -- 70
2020-07-23 20:00:00 24.9 26 Nordeste 54 Nordeste 0 -- -- 65
2020-07-23 19:00:00 26.3 33 Nordeste 56 Nordeste 0 -- -- 60
2020-07-23 18:00:00 27 34 Nordeste 59 Nordeste 0 -- -- 59
2020-07-23 17:00:00 28 35 Nordeste 59 Nordeste 0 -- -- 56
2020-07-23 16:00:00 28.9 36 Nordeste 61 Nordeste 0 -- -- 53
2020-07-23 15:00:00 29.3 36 Nordeste 63 Nordeste 0 -- -- 52
2020-07-23 14:00:00 28.9 39 Nordeste 63 Norte 0 -- -- 52
2020-07-23 13:00:00 28.9 33 Nordeste 57 Nordeste 0 -- -- 52
2020-07-23 12:00:00 27.4 36 Nordeste 60 Nordeste 0 -- -- 56
2020-07-23 11:00:00 26.1 37 Nordeste 59 Nordeste 0 -- -- 60
2020-07-23 10:00:00 24.9 32 Nordeste 59 Nordeste 0 -- -- 62
2020-07-23 09:00:00 23.1 32 Nordeste 54 Nordeste 0 -- -- 70
2020-07-23 08:00:00 22.2 33 Nordeste 53 Nordeste 0 -- -- 71
2020-07-23 07:00:00 22.1 26 Nordeste 46 Nordeste 0 -- -- 70
2020-07-23 06:00:00 22.3 25 Nordeste 47 Nordeste 0 -- -- 67
2020-07-23 05:00:00 22.8 23 Nordeste 40 Nordeste 0 -- -- 64
2020-07-23 04:00:00 23 28 Nordeste 46 Nordeste 0 -- -- 62
2020-07-23 03:00:00 22.6 24 Nordeste 45 Nordeste 0 -- -- 68
2020-07-23 02:00:00 22.4 22 Nordeste 44 Norte 0 -- -- 69
2020-07-23 01:00:00 22.2 25 Nordeste 47 Norte 0 -- -- 72
2020-07-23 00:00:00 22.3 29 Nordeste 48 Nordeste 0 -- -- 72
2020-07-22 23:00:00 22.3 23 Norte 42 Nordeste 0 -- -- 71
2020-07-22 22:00:00 22.6 24 Nordeste 45 Nordeste 0 -- -- 71
2020-07-22 21:00:00 23.1 27 Nordeste 51 Nordeste 0 -- -- 70
2020-07-22 20:00:00 24.2 30 Nordeste 53 Nordeste 0 -- -- 66
2020-07-22 19:00:00 25.7 33 Nordeste 57 Norte 0 -- -- 63
2020-07-22 18:00:00 26.7 32 Nordeste 57 Norte 0 -- -- 59
2020-07-22 17:00:00 27.5 30 Nordeste 59 Nordeste 0 -- -- 58
2020-07-22 16:00:00 27.8 32 Nordeste 62 Nordeste 0 -- -- 56
2020-07-22 15:00:00 28.1 28 Nordeste 54 Nordeste 0 -- -- 55
2020-07-22 14:00:00 27.7 32 Nordeste 59 Norte 0 -- -- 56
2020-07-22 13:00:00 27.3 33 Nordeste 59 Nordeste 0 -- -- 57
2020-07-22 12:00:00 26.2 37 Nordeste 59 Norte 0 -- -- 60
2020-07-22 11:00:00 24.8 32 Norte 54 Norte 0 -- -- 63
2020-07-22 10:00:00 24 27 Nordeste 49 Norte 0 -- -- 65
2020-07-22 09:00:00 23 26 Nordeste 51 Norte 0 -- -- 69
2020-07-22 08:00:00 22 29 Nordeste 51 Norte 0 -- -- 73
2020-07-22 07:00:00 21.7 31 Norte 51 Norte 0 -- -- 73
2020-07-22 06:00:00 21.7 28 Nordeste 55 Norte 0 -- -- 74
2020-07-22 05:00:00 21.8 30 Norte 54 Norte 0 -- -- 72
2020-07-22 04:00:00 22 20 Norte 50 Norte 0 -- -- 73
2020-07-22 03:00:00 22.1 30 Norte 56 Norte 0 -- -- 72
2020-07-22 02:00:00 22.3 32 Norte 51 Nordeste 0 -- -- 73
2020-07-22 01:00:00 22.1 30 Norte 60 Norte 0 -- -- 70
2020-07-22 00:00:00 22 32 Norte 59 Nordeste 0 -- -- 71
2020-07-21 23:00:00 22.2 32 Norte 58 Norte 0 -- -- 71
2020-07-21 22:00:00 22.3 27 Nordeste 58 Nordeste 0 -- -- 70
2020-07-21 21:00:00 22.6 32 Nordeste 53 Nordeste 0 -- -- 68
2020-07-21 20:00:00 23.9 30 Nordeste 54 Nordeste 0 -- -- 64
2020-07-21 19:00:00 25.2 32 Nordeste 54 Nordeste 0 -- -- 60
2020-07-21 18:00:00 26 33 Nordeste 58 Nordeste 0 -- -- 58
2020-07-21 17:00:00 26.7 28 Nordeste 58 Nordeste 0 -- -- 57
2020-07-21 16:00:00 27.1 37 Nordeste 57 Norte 0 -- -- 54
2020-07-21 15:00:00 27.1 36 Nordeste 62 Nordeste 0 -- -- 54
2020-07-21 14:00:00 27.1 36 Nordeste 59 Nordeste 0 -- -- 54
2020-07-21 13:00:00 27 35 Nordeste 62 Nordeste 0 -- -- 53
2020-07-21 12:00:00 26.2 33 Nordeste 61 Nordeste 0 -- -- 57
2020-07-21 11:00:00 25.2 33 Nordeste 58 Nordeste 0 -- -- 57
2020-07-21 10:00:00 23.6 35 Norte 61 Norte 0 -- -- 63
2020-07-21 09:00:00 22.5 35 Norte 57 Norte 0 -- -- 67
2020-07-21 08:00:00 21.6 30 Norte 60 Norte 0 -- -- 70
2020-07-21 07:00:00 21.4 33 Nordeste 57 Nordeste 0 -- -- 72
2020-07-21 06:00:00 21.5 28 Nordeste 51 Norte 0 -- -- 74
2020-07-21 05:00:00 21.6 29 Nordeste 61 Nordeste 0 -- -- 73
2020-07-21 04:00:00 21.8 41 Nordeste 65 Nordeste 0 -- -- 71
2020-07-21 03:00:00 21.7 36 Nordeste 65 Norte 0 -- -- 73
2020-07-21 02:00:00 22.9 13 Norte 66 Nordeste 0 -- -- 63
2020-07-21 01:00:00 22.2 32 Nordeste 60 Nordeste 0 -- -- 69
2020-07-21 00:00:00 22.4 29 Norte 59 Nordeste 0 -- -- 69
2020-07-20 23:00:00 22.4 31 Norte 67 Norte 0 -- -- 70
2020-07-20 22:00:00 22.8 45 Nordeste 69 Norte 0 -- -- 68
2020-07-20 21:00:00 23.2 30 Nordeste 55 Nordeste 0 -- -- 68
2020-07-20 20:00:00 24.9 28 Nordeste 55 Nordeste 0 -- -- 62
2020-07-20 19:00:00 27.1 26 Nordeste 50 Nordeste 0 -- -- 54
2020-07-20 18:00:00 28.3 32 Nordeste 62 Norte 0 -- -- 51
2020-07-20 17:00:00 28.6 32 Norte 67 Nordeste 0 -- -- 51
2020-07-20 16:00:00 28.7 38 Nordeste 71 Nordeste 0 -- -- 51
2020-07-20 15:00:00 28.6 39 Nordeste 67 Norte 0 -- -- 51
2020-07-20 14:00:00 27.8 33 Nordeste 65 Norte 0 -- -- 57
2020-07-20 13:00:00 27.7 36 Norte 70 Nordeste 0 -- -- 54
2020-07-20 12:00:00 27.6 42 Nordeste 68 Nordeste 0 -- -- 55
2020-07-20 11:00:00 26.1 37 Nordeste 59 Norte 0 -- -- 60
2020-07-20 10:00:00 26.3 23 Nordeste 35 Nordeste 0 -- -- 58
2020-07-20 09:00:00 25.1 18 Norte 40 Norte 0 -- -- 58
2020-07-20 08:00:00 24 20 Norte 61 Norte 0 -- -- 60
2020-07-20 07:00:00 23.5 36 Nordeste 61 Nordeste 0 -- -- 66
2020-07-20 06:00:00 24.7 27 Nordeste 45 Nordeste 0 -- -- 58
2020-07-20 05:00:00 25.5 27 Nordeste 49 Nordeste 0 -- -- 55
2020-07-20 04:00:00 27.7 30 Nordeste 46 Nordeste 0 -- -- 39
2020-07-20 03:00:00 29.1 31 Nordeste 55 Nordeste 0 -- -- 31
2020-07-20 02:00:00 29.8 29 Nordeste 50 Nordeste 0 -- -- 31
2020-07-20 01:00:00 31.4 34 Nordeste 53 Nordeste 0 -- -- 29
2020-07-20 00:00:00 31.5 33 Nordeste 57 Norte 0 -- -- 28
2020-07-19 23:00:00 31.2 30 Nordeste 52 Nordeste 0 -- -- 31
2020-07-19 22:00:00 31.4 33 Nordeste 52 Nordeste 0 -- -- 30
2020-07-19 21:00:00 31.6 32 Nordeste 56 Nordeste 0 -- -- 30
2020-07-19 20:00:00 32.1 37 Nordeste 59 Nordeste 0 -- -- 29
2020-07-19 19:00:00 34.3 33 Nordeste 60 Nordeste 0 -- -- 25
2020-07-19 18:00:00 36.1 33 Nordeste 59 Nordeste 0 -- -- 22
2020-07-19 17:00:00 37.2 33 Nordeste 58 Norte 0 -- -- 20
2020-07-19 16:00:00 38.1 39 Nordeste 66 Nordeste 0 -- -- 18
2020-07-19 15:00:00 37.9 38 Nordeste 58 Nordeste 0 -- -- 20
2020-07-19 14:00:00 37.5 35 Nordeste 60 Nordeste 0 -- -- 22
2020-07-19 13:00:00 36.9 35 Nordeste 63 Nordeste 0 -- -- 24
2020-07-19 12:00:00 35.9 37 Nordeste 64 Norte 0 -- -- 24
2020-07-19 11:00:00 35.2 37 Nordeste 60 Norte 0 -- -- 23
2020-07-19 10:00:00 33.8 33 Nordeste 56 Nordeste 0 -- -- 24
2020-07-19 09:00:00 31.5 28 Nordeste 46 Nordeste 0 -- -- 26
2020-07-19 08:00:00 28.9 23 Nordeste 52 Nordeste 0 -- -- 27
2020-07-19 07:00:00 28.3 32 Nordeste 56 Nordeste 0 -- -- 29
2020-07-19 06:00:00 28.4 29 Nordeste 49 Nordeste 0 -- -- 29
2020-07-19 05:00:00 29.2 27 Nordeste 43 Nordeste 0 -- -- 28
2020-07-19 04:00:00 29.9 21 Nordeste 36 Nordeste 0 -- -- 27
2020-07-19 03:00:00 30.8 21 Nordeste 35 Nordeste 0 -- -- 27
2020-07-19 02:00:00 30.7 18 Nordeste 35 Nordeste 0 -- -- 31
2020-07-19 01:00:00 29.4 18 Nordeste 36 Nordeste 0 -- -- 33
2020-07-19 00:00:00 29.3 20 Nordeste 39 Nordeste 0 -- -- 33
2020-07-18 23:00:00 28.2 11 Norte 33 Norte 0 -- -- 36
2020-07-18 22:00:00 27.8 19 Nordeste 32 Nordeste 0 -- -- 42
2020-07-18 21:00:00 28 14 Nordeste 27 Nordeste 0 -- -- 55
2020-07-18 20:00:00 31.4 15 Nordeste 33 Nordeste 0 -- -- 44
2020-07-18 19:00:00 32.7 16 Nordeste 37 Nordeste 0 -- -- 41
2020-07-18 18:00:00 34.7 22 Nordeste 43 Nordeste 0 -- -- 33
2020-07-18 17:00:00 34.8 24 Nordeste 47 Nordeste 0 -- -- 34
2020-07-18 16:00:00 35.4 27 Nordeste 46 Nordeste 0 -- -- 31
2020-07-18 15:00:00 31.8 10 Sur 31 Nordeste 0 -- -- 50
2020-07-18 14:00:00 29.8 17 Sur 27 Sur 0 -- -- 57
2020-07-18 13:00:00 29.4 9 Sur 17 Sur 0 -- -- 57
2020-07-18 12:00:00 28.7 16 Sur 27 Nordeste 0 -- -- 60
2020-07-18 11:00:00 28.3 4 Sudeste 14 Sur 0 -- -- 64
2020-07-18 10:00:00 24.5 7 Sudoeste 14 Sudoeste 0 -- -- 80
2020-07-18 09:00:00 23.3 4 Sudoeste 9 Sudoeste 0 -- -- 88
2020-07-18 08:00:00 21.1 2 Oeste 13 Sudoeste 0 -- -- 95
2020-07-18 07:00:00 20.5 3 Sudoeste 8 Noroeste 0 -- -- 94
2020-07-18 06:00:00 21.2 5 Sur 11 Sur 0 -- -- 95
2020-07-18 05:00:00 21.5 6 Sudoeste 16 Sudoeste 0 -- -- 93
2020-07-18 04:00:00 20.5 3 Este 10 Sudoeste 0 -- -- 91
2020-07-18 03:00:00 21.7 4 Sudeste 11 Sudoeste 0 -- -- 94
2020-07-18 02:00:00 21.5 5 Sur 17 Sur 0 -- -- 93
2020-07-18 01:00:00 21.4 7 Sur 13 Sur 0 -- -- 92
2020-07-18 00:00:00 21.6 6 Sur 11 Sudeste 0 -- -- 88
2020-07-17 23:00:00 22.2 6 Sur 12 Sur 0 -- -- 89
2020-07-17 22:00:00 22.7 6 Sudoeste 12 Sudoeste 0 -- -- 89
2020-07-17 21:00:00 23.4 6 Sur 11 Sur 0 -- -- 83
2020-07-17 20:00:00 24.6 5 Sur 14 Sudoeste 0 -- -- 80
2020-07-17 19:00:00 26.3 6 Sur 17 Sur 0 -- -- 73
2020-07-17 18:00:00 26.3 11 Sur 23 Sudoeste 0 -- -- 72
2020-07-17 17:00:00 28.5 13 Sur 27 Nordeste 0 -- -- 64
2020-07-17 16:00:00 29.8 14 Nordeste 24 Este 0 -- -- 57
2020-07-17 15:00:00 26.6 15 Sur 25 Nordeste 0 -- -- 70
2020-07-17 14:00:00 28.3 15 Nordeste 28 Nordeste 0 -- -- 60
2020-07-17 13:00:00 27 13 Sudoeste 21 Sudoeste 0 -- -- 68
2020-07-17 12:00:00 26.3 13 Sudoeste 20 Sur 0 -- -- 73
2020-07-17 11:00:00 26.5 6 Sudoeste 12 Sudoeste 0 -- -- 70
2020-07-17 10:00:00 23.4 6 Sudoeste 13 Sudeste 0 -- -- 83
2020-07-17 09:00:00 22.9 6 Sur 9 Sur 0 -- -- 84
2020-07-17 08:00:00 20.9 3 Sudoeste 10 Nordeste 0 -- -- 85
2020-07-17 07:00:00 20.8 9 Sudoeste 14 Sur 0 -- -- 85
2020-07-17 06:00:00 20.6 4 Este 10 Sur 0 -- -- 83
2020-07-17 05:00:00 20.6 2 Norte 7 Nordeste 0 -- -- 83
2020-07-17 04:00:00 20.9 5 Nordeste 12 Nordeste 0 -- -- 82
2020-07-17 03:00:00 21 6 Nordeste 10 Nordeste 0 -- -- 82
2020-07-17 02:00:00 21.4 6 Nordeste 10 Nordeste 0 -- -- 81
2020-07-17 01:00:00 21.5 6 Nordeste 11 Nordeste 0 -- -- 81
2020-07-17 00:00:00 21.6 5 Nordeste 7 Nordeste 0 -- -- 80
2020-07-16 23:00:00 21.5 2 Sudoeste 7 Sur 0 -- -- 79
2020-07-16 22:00:00 22.5 4 Sudeste 22 Nordeste 0 -- -- 84
2020-07-16 21:00:00 23.5 12 Nordeste 18 Nordeste 0 -- -- 73
2020-07-16 20:00:00 24.7 7 Sudoeste 18 Sur 0 -- -- 76
2020-07-16 19:00:00 25.1 13 Sur 21 Sur 0 -- -- 75
2020-07-16 18:00:00 27.3 10 Sur 17 Sudoeste 0 -- -- 66
2020-07-16 17:00:00 28.2 5 Sudoeste 16 Sudoeste 0 -- -- 63
2020-07-16 16:00:00 27.5 13 Sudoeste 22 Sudoeste 0 -- -- 65
2020-07-16 15:00:00 29.3 13 Nordeste 33 Nordeste 0 -- -- 54
2020-07-16 14:00:00 28.3 21 Nordeste 34 Nordeste 0 -- -- 57
2020-07-16 13:00:00 26.8 22 Nordeste 35 Nordeste 0 -- -- 61
2020-07-16 12:00:00 27.1 20 Nordeste 33 Nordeste 0 -- -- 61
2020-07-16 11:00:00 26.6 17 Nordeste 31 Norte 0 -- -- 62
2020-07-16 10:00:00 24.4 20 Nordeste 37 Nordeste 0 -- -- 68
2020-07-16 09:00:00 22.4 19 Nordeste 31 Norte 0 -- -- 75
2020-07-16 08:00:00 21 9 Nordeste 16 Nordeste 0 -- -- 81
2020-07-16 07:00:00 20.6 6 Nordeste 12 Nordeste 0 -- -- 82
2020-07-16 06:00:00 20.8 10 Nordeste 19 Nordeste 0 -- -- 81
2020-07-16 05:00:00 21.1 13 Nordeste 33 Norte 0 -- -- 79
2020-07-16 04:00:00 21.2 22 Norte 36 Norte 0 -- -- 80
2020-07-16 03:00:00 21.3 20 Nordeste 35 Norte 0 -- -- 80
2020-07-16 02:00:00 21.9 24 Norte 38 Nordeste 0 -- -- 76
2020-07-16 01:00:00 21.8 22 Norte 35 Norte 0 -- -- 76
2020-07-16 00:00:00 22.3 14 Nordeste 26 Nordeste 0 -- -- 74
2020-07-15 23:00:00 22.9 12 Norte 33 Norte 0 -- -- 71
2020-07-15 22:00:00 22.6 23 Norte 45 Norte 0 -- -- 74
2020-07-15 21:00:00 23.3 28 Nordeste 48 Nordeste 0 -- -- 71
2020-07-15 20:00:00 24.6 32 Nordeste 57 Norte 0 -- -- 67
2020-07-15 19:00:00 26 36 Nordeste 58 Nordeste 0 -- -- 63
2020-07-15 18:00:00 27.3 36 Nordeste 59 Nordeste 0 -- -- 59
2020-07-15 17:00:00 28.7 35 Nordeste 59 Norte 0 -- -- 53
2020-07-15 16:00:00 28.8 33 Nordeste 57 Norte 0 -- -- 55
2020-07-15 15:00:00 30.3 15 Norte 46 Norte 0 -- -- 54
2020-07-15 14:00:00 30.1 27 Nordeste 46 Nordeste 0 -- -- 50
2020-07-15 13:00:00 30.6 17 Nordeste 33 Norte 0 -- -- 48
2020-07-15 12:00:00 26.6 7 Oeste 26 Sudoeste 0 -- -- 65
2020-07-15 11:00:00 25.8 11 Sudoeste 18 Sudoeste 0 -- -- 68
2020-07-15 10:00:00 24.7 8 Sur 18 Sudoeste 0 -- -- 78
2020-07-15 09:00:00 23.5 13 Sur 20 Sur 0 -- -- 80
2020-07-15 08:00:00 20.8 6 Sur 12 Sudoeste 0 -- -- 92
2020-07-15 07:00:00 21.1 7 Oeste 18 Norte 0 -- -- 90
2020-07-15 06:00:00 21.2 7 Sudoeste 17 Sudoeste 0 -- -- 90
2020-07-15 05:00:00 21.4 8 Nordeste 19 Este 0 -- -- 72
2020-07-15 04:00:00 21.5 6 Sudoeste 20 Norte 0 -- -- 86
2020-07-15 03:00:00 23 7 Noroeste 14 Noroeste 0 -- -- 63
2020-07-15 02:00:00 23.4 7 Sur 24 Norte 0 -- -- 68
2020-07-15 01:00:00 25.9 13 Nordeste 32 Nordeste 0 -- -- 45
2020-07-15 00:00:00 27 18 Nordeste 40 Norte 0 -- -- 39